This is the latest recevied weather packets stored in our database for station/object KC0AFB. If no packets are shown the sender has not sent any weather packets the latest 10 day(s).
| Time | Temp. | Humidity | Pressure | Rain* | Wind** | Luminosity | Snow |
|---|---|---|---|---|---|---|---|
| 1778110347 | 10.56° C | 36% | 1013.3 hPa | 0 mm | - | 126 W/m² | - |
| 1778110044 | 10° C | 39% | 1013.5 hPa | 0 mm | - | 217 W/m² | - |
| 1778109739 | 10° C | 38% | 1013.3 hPa | 0 mm | - | 155 W/m² | - |
| 1778109436 | 10.56° C | 39% | 1013.5 hPa | 0 mm | - | 395 W/m² | - |
| 1778109135 | 10° C | 39% | 1013.4 hPa | 0 mm | - | 346 W/m² | - |
| 1778108831 | 10° C | 41% | 1013.5 hPa | 0 mm | - | 121 W/m² | - |
| 1778108528 | 10.56° C | 39% | 1013.5 hPa | 0 mm | - | 152 W/m² | - |
| 1778108224 | 10° C | 38% | 1013.4 hPa | 0 mm | - | 242 W/m² | - |
| 1778107921 | 10.56° C | 36% | 1013.8 hPa | 0 mm | - | 144 W/m² | - |
| 1778107618 | 10° C | 40% | 1013.6 hPa | 0 mm | - | 161 W/m² | - |
| 1778107315 | 10.56° C | 38% | 1013.6 hPa | 0 mm | - | 467 W/m² | - |
| 1778107011 | 11.11° C | 38% | 1013.7 hPa | 0 mm | - | 431 W/m² | - |
| 1778106707 | 11.11° C | 36% | 1013.7 hPa | 0 mm | - | 501 W/m² | - |
| 1778106404 | 10.56° C | 39% | 1013.6 hPa | 0 mm | - | 525 W/m² | - |
| 1778106100 | 10° C | 39% | 1013.6 hPa | 0 mm | - | 147 W/m² | - |
| 1778105798 | 11.11° C | 38% | 1013.8 hPa | 0 mm | - | 476 W/m² | - |
| 1778105496 | 10° C | 40% | 1013.7 hPa | 0 mm | - | 505 W/m² | - |
| 1778105192 | 10.56° C | 41% | 1014.2 hPa | 0 mm | - | 301 W/m² | - |
| 1778104887 | 10.56° C | 41% | 1013.9 hPa | 0 mm | - | 204 W/m² | - |
| 1778104584 | 11.11° C | 39% | 1014 hPa | 0 mm | - | 569 W/m² | - |
| 1778104280 | 10.56° C | 38% | 1014.1 hPa | 0 mm | - | 626 W/m² | - |
| 1778103977 | 9.44° C | 42% | 1014.2 hPa | 0 mm | - | 635 W/m² | - |
| 1778103674 | 11.11° C | 41% | 1014.3 hPa | 0 mm | - | 563 W/m² | - |
| 1778103372 | 10.56° C | 45% | 1014 hPa | 0 mm | - | 585 W/m² | - |
| 1778103069 | 10° C | 42% | 1014.3 hPa | 0 mm | - | 594 W/m² | - |
* Rain latest hour (hover to see other rain measurements)
** Current wind speed in m/s (hover to see current wind gust speed)